sensor_id;sensor_type;location;lat;lon;timestamp;P1;P2;P0
77878;PMS7003;67071;51.144;17.050;2023-02-15T13:08:37;31;30;18
77878;PMS7003;67071;51.144;17.050;2023-02-15T13:12:24;27;25;14
77878;PMS7003;67071;51.144;17.050;2023-02-15T13:15:51;29;26;15
77878;PMS7003;67071;51.144;17.050;2023-02-15T13:19:13;24;23;13
77878;PMS7003;67071;51.144;17.050;2023-02-15T13:22:37;36;31;19
77878;PMS7003;67071;51.144;17.050;2023-02-15T13:25:59;32;30;17
77878;PMS7003;67071;51.144;17.050;2023-02-15T13:29:38;34;29;16
77878;PMS7003;67071;51.144;17.050;2023-02-15T13:33:01;29;28;12
77878;PMS7003;67071;51.144;17.050;2023-02-15T13:40:31;42;32;18
77878;PMS7003;67071;51.144;17.050;2023-02-15T13:54:27;34;32;19
77878;PMS7003;67071;51.144;17.050;2023-02-15T14:05:14;30;28;15
77878;PMS7003;67071;51.144;17.050;2023-02-15T14:15:47;49;33;20
77878;PMS7003;67071;51.144;17.050;2023-02-15T14:19:33;30;29;16
77878;PMS7003;67071;51.144;17.050;2023-02-15T14:23:18;27;23;15
77878;PMS7003;67071;51.144;17.050;2023-02-15T14:30:02;32;29;19
77878;PMS7003;67071;51.144;17.050;2023-02-15T14:33:39;29;27;15
77878;PMS7003;67071;51.144;17.050;2023-02-15T14:36:57;35;32;17
77878;PMS7003;67071;51.144;17.050;2023-02-15T14:47:36;35;32;20
77878;PMS7003;67071;51.144;17.050;2023-02-15T14:50:56;28;24;17
77878;PMS7003;67071;51.144;17.050;2023-02-15T15:04:42;26;25;18
77878;PMS7003;67071;51.144;17.050;2023-02-15T15:08:38;29;25;14
77878;PMS7003;67071;51.144;17.050;2023-02-15T15:12:12;31;27;15
77878;PMS7003;67071;51.144;17.050;2023-02-15T15:15:33;26;24;15
77878;PMS7003;67071;51.144;17.050;2023-02-15T15:22:43;27;26;16
77878;PMS7003;67071;51.144;17.050;2023-02-15T15:29:41;36;28;16
77878;PMS7003;67071;51.144;17.050;2023-02-15T15:36:45;38;32;17
77878;PMS7003;67071;51.144;17.050;2023-02-15T15:40:35;25;23;14
77878;PMS7003;67071;51.144;17.050;2023-02-15T15:44:22;18;18;12
77878;PMS7003;67071;51.144;17.050;2023-02-15T15:51:30;28;24;13
77878;PMS7003;67071;51.144;17.050;2023-02-15T15:54:50;24;22;10
77878;PMS7003;67071;51.144;17.050;2023-02-15T15:58:12;31;25;14
77878;PMS7003;67071;51.144;17.050;2023-02-15T16:01:39;29;23;12
77878;PMS7003;67071;51.144;17.050;2023-02-15T16:05:07;36;32;18
77878;PMS7003;67071;51.144;17.050;2023-02-15T16:11:46;31;27;17
77878;PMS7003;67071;51.144;17.050;2023-02-15T16:18:31;35;30;14
77878;PMS7003;67071;51.144;17.050;2023-02-15T16:21:57;26;24;14
77878;PMS7003;67071;51.144;17.050;2023-02-15T16:29:25;27;22;11
77878;PMS7003;67071;51.144;17.050;2023-02-15T16:32:46;20;17;12
77878;PMS7003;67071;51.144;17.050;2023-02-15T16:36:01;21;18;11
77878;PMS7003;67071;51.144;17.050;2023-02-15T16:39:29;18;14;8
77878;PMS7003;67071;51.144;17.050;2023-02-15T16:42:55;14;13;6
77878;PMS7003;67071;51.144;17.050;2023-02-15T16:46:17;13;13;9
77878;PMS7003;67071;51.144;17.050;2023-02-15T16:49:38;18;17;9
77878;PMS7003;67071;51.144;17.050;2023-02-15T16:53:01;17;15;9
77878;PMS7003;67071;51.144;17.050;2023-02-15T16:56:22;20;16;10
77878;PMS7003;67071;51.144;17.050;2023-02-15T16:59:44;20;15;8
77878;PMS7003;67071;51.144;17.050;2023-02-15T17:03:05;17;15;9
77878;PMS7003;67071;51.144;17.050;2023-02-15T17:06:35;21;13;9
77878;PMS7003;67071;51.144;17.050;2023-02-15T17:09:53;17;13;7
77878;PMS7003;67071;51.144;17.050;2023-02-15T17:13:30;13;10;6
77878;PMS7003;67071;51.144;17.050;2023-02-15T17:16:49;14;12;6
77878;PMS7003;67071;51.144;17.050;2023-02-15T17:20:33;12;11;8
77878;PMS7003;67071;51.144;17.050;2023-02-15T17:23:56;12;11;8
77878;PMS7003;67071;51.144;17.050;2023-02-15T17:27:18;7;7;5
77878;PMS7003;67071;51.144;17.050;2023-02-15T17:30:37;12;7;5
77878;PMS7003;67071;51.144;17.050;2023-02-15T17:33:53;59;44;27
77878;PMS7003;67071;51.144;17.050;2023-02-15T17:40:40;17;13;9
77878;PMS7003;67071;51.144;17.050;2023-02-15T17:43:55;11;11;7
77878;PMS7003;67071;51.144;17.050;2023-02-15T17:47:15;9;5;2
77878;PMS7003;67071;51.144;17.050;2023-02-15T17:50:35;12;8;5
77878;PMS7003;67071;51.144;17.050;2023-02-15T17:53:50;11;8;4
77878;PMS7003;67071;51.144;17.050;2023-02-15T17:57:15;10;10;6
77878;PMS7003;67071;51.144;17.050;2023-02-15T18:00:54;13;11;7
77878;PMS7003;67071;51.144;17.050;2023-02-15T18:04:22;13;8;6
77878;PMS7003;67071;51.144;17.050;2023-02-15T18:07:49;10;9;6
77878;PMS7003;67071;51.144;17.050;2023-02-15T18:11:14;10;7;5
77878;PMS7003;67071;51.144;17.050;2023-02-15T18:14:40;17;13;7
77878;PMS7003;67071;51.144;17.050;2023-02-15T18:18:07;13;11;5
77878;PMS7003;67071;51.144;17.050;2023-02-15T18:21:24;15;12;9
77878;PMS7003;67071;51.144;17.050;2023-02-15T18:24:39;19;15;9
77878;PMS7003;67071;51.144;17.050;2023-02-15T18:27:54;16;14;8
77878;PMS7003;67071;51.144;17.050;2023-02-15T18:31:09;2;0;0
77878;PMS7003;67071;51.144;17.050;2023-02-15T18:37:51;20;16;10
77878;PMS7003;67071;51.144;17.050;2023-02-15T18:41:17;28;27;16
77878;PMS7003;67071;51.144;17.050;2023-02-15T18:44:41;29;23;12
77878;PMS7003;67071;51.144;17.050;2023-02-15T18:47:56;18;17;9
77878;PMS7003;67071;51.144;17.050;2023-02-15T18:51:17;26;22;13
77878;PMS7003;67071;51.144;17.050;2023-02-15T18:54:54;24;18;11
77878;PMS7003;67071;51.144;17.050;2023-02-15T18:58:15;22;15;8
77878;PMS7003;67071;51.144;17.050;2023-02-15T19:01:43;19;18;10
77878;PMS7003;67071;51.144;17.050;2023-02-15T19:05:04;20;17;11
77878;PMS7003;67071;51.144;17.050;2023-02-15T19:08:21;20;17;10
77878;PMS7003;67071;51.144;17.050;2023-02-15T19:11:38;16;13;7
77878;PMS7003;67071;51.144;17.050;2023-02-15T19:14:55;23;17;10
77878;PMS7003;67071;51.144;17.050;2023-02-15T19:18:10;18;16;8
77878;PMS7003;67071;51.144;17.050;2023-02-15T19:21:26;28;25;13
77878;PMS7003;67071;51.144;17.050;2023-02-15T19:24:43;38;25;14
77878;PMS7003;67071;51.144;17.050;2023-02-15T19:28:00;25;22;13
77878;PMS7003;67071;51.144;17.050;2023-02-15T19:31:30;26;23;13
77878;PMS7003;67071;51.144;17.050;2023-02-15T19:34:45;26;21;12
77878;PMS7003;67071;51.144;17.050;2023-02-15T19:38:10;18;15;11
77878;PMS7003;67071;51.144;17.050;2023-02-15T19:41:32;27;23;11
77878;PMS7003;67071;51.144;17.050;2023-02-15T19:44:48;21;20;12
77878;PMS7003;67071;51.144;17.050;2023-02-15T19:48:04;18;16;11
77878;PMS7003;67071;51.144;17.050;2023-02-15T19:51:20;20;17;11
77878;PMS7003;67071;51.144;17.050;2023-02-15T19:54:56;18;17;11
77878;PMS7003;67071;51.144;17.050;2023-02-15T19:58:12;32;21;12
77878;PMS7003;67071;51.144;17.050;2023-02-15T20:01:27;22;19;11
77878;PMS7003;67071;51.144;17.050;2023-02-15T20:04:42;25;20;11
77878;PMS7003;67071;51.144;17.050;2023-02-15T20:07:57;25;22;13
77878;PMS7003;67071;51.144;17.050;2023-02-15T20:11:18;34;25;16
77878;PMS7003;67071;51.144;17.050;2023-02-15T20:14:33;28;23;13
77878;PMS7003;67071;51.144;17.050;2023-02-15T20:17:48;21;20;9
77878;PMS7003;67071;51.144;17.050;2023-02-15T20:21:05;25;22;13
77878;PMS7003;67071;51.144;17.050;2023-02-15T20:24:27;22;21;14
77878;PMS7003;67071;51.144;17.050;2023-02-15T20:27:44;24;22;14
77878;PMS7003;67071;51.144;17.050;2023-02-15T20:30:59;24;23;12
77878;PMS7003;67071;51.144;17.050;2023-02-15T20:34:14;27;23;14
77878;PMS7003;67071;51.144;17.050;2023-02-15T20:37:34;23;20;12
77878;PMS7003;67071;51.144;17.050;2023-02-15T20:40:52;24;19;13
77878;PMS7003;67071;51.144;17.050;2023-02-15T20:47:45;23;18;9
77878;PMS7003;67071;51.144;17.050;2023-02-15T20:51:18;30;21;14
77878;PMS7003;67071;51.144;17.050;2023-02-15T20:54:36;30;22;12
77878;PMS7003;67071;51.144;17.050;2023-02-15T20:57:50;15;14;8
77878;PMS7003;67071;51.144;17.050;2023-02-15T21:01:04;19;16;9
77878;PMS7003;67071;51.144;17.050;2023-02-15T21:04:29;24;20;11
77878;PMS7003;67071;51.144;17.050;2023-02-15T21:11:28;25;17;10
77878;PMS7003;67071;51.144;17.050;2023-02-15T21:14:44;23;21;12
77878;PMS7003;67071;51.144;17.050;2023-02-15T21:18:00;21;17;12
77878;PMS7003;67071;51.144;17.050;2023-02-15T21:21:32;18;15;9
77878;PMS7003;67071;51.144;17.050;2023-02-15T21:24:50;23;17;11
77878;PMS7003;67071;51.144;17.050;2023-02-15T21:28:10;17;15;9
77878;PMS7003;67071;51.144;17.050;2023-02-15T21:31:53;8;7;4
77878;PMS7003;67071;51.144;17.050;2023-02-15T21:35:13;22;16;10
77878;PMS7003;67071;51.144;17.050;2023-02-15T21:38:29;19;14;6
77878;PMS7003;67071;51.144;17.050;2023-02-15T21:41:47;12;10;5
77878;PMS7003;67071;51.144;17.050;2023-02-15T21:45:15;13;12;7
77878;PMS7003;67071;51.144;17.050;2023-02-15T21:48:41;14;12;7
77878;PMS7003;67071;51.144;17.050;2023-02-15T21:51:57;13;12;7
77878;PMS7003;67071;51.144;17.050;2023-02-15T21:55:23;10;8;4
77878;PMS7003;67071;51.144;17.050;2023-02-15T21:58:42;12;10;6
77878;PMS7003;67071;51.144;17.050;2023-02-15T22:01:59;15;15;7
77878;PMS7003;67071;51.144;17.050;2023-02-15T22:05:15;17;13;7
77878;PMS7003;67071;51.144;17.050;2023-02-15T22:08:44;11;9;4
77878;PMS7003;67071;51.144;17.050;2023-02-15T22:12:07;13;11;7
77878;PMS7003;67071;51.144;17.050;2023-02-15T22:15:34;18;14;7
77878;PMS7003;67071;51.144;17.050;2023-02-15T22:18:51;12;11;6
77878;PMS7003;67071;51.144;17.050;2023-02-15T22:22:08;14;10;6
77878;PMS7003;67071;51.144;17.050;2023-02-15T22:25:24;15;14;9
77878;PMS7003;67071;51.144;17.050;2023-02-15T22:28:41;14;11;5
77878;PMS7003;67071;51.144;17.050;2023-02-15T22:32:09;16;12;7
77878;PMS7003;67071;51.144;17.050;2023-02-15T22:35:35;16;9;5
77878;PMS7003;67071;51.144;17.050;2023-02-15T22:38:51;14;10;7
77878;PMS7003;67071;51.144;17.050;2023-02-15T22:45:34;20;11;7
77878;PMS7003;67071;51.144;17.050;2023-02-15T22:48:59;12;8;6
77878;PMS7003;67071;51.144;17.050;2023-02-15T22:52:15;15;13;8
77878;PMS7003;67071;51.144;17.050;2023-02-15T22:55:32;21;19;11
77878;PMS7003;67071;51.144;17.050;2023-02-15T22:59:02;25;16;9
77878;PMS7003;67071;51.144;17.050;2023-02-15T23:02:22;19;14;9
77878;PMS7003;67071;51.144;17.050;2023-02-15T23:05:43;26;19;10
77878;PMS7003;67071;51.144;17.050;2023-02-15T23:09:00;17;14;9
77878;PMS7003;67071;51.144;17.050;2023-02-15T23:12:41;21;19;10
77878;PMS7003;67071;51.144;17.050;2023-02-15T23:16:12;25;13;8
77878;PMS7003;67071;51.144;17.050;2023-02-15T23:19:36;12;10;7
77878;PMS7003;67071;51.144;17.050;2023-02-15T23:22:53;18;15;9
77878;PMS7003;67071;51.144;17.050;2023-02-15T23:26:14;16;12;8
77878;PMS7003;67071;51.144;17.050;2023-02-15T23:29:39;15;15;9
77878;PMS7003;67071;51.144;17.050;2023-02-15T23:32:55;12;11;7
77878;PMS7003;67071;51.144;17.050;2023-02-15T23:36:23;19;16;7
77878;PMS7003;67071;51.144;17.050;2023-02-15T23:43:42;14;11;7
77878;PMS7003;67071;51.144;17.050;2023-02-15T23:47:21;19;12;8
77878;PMS7003;67071;51.144;17.050;2023-02-15T23:51:05;11;11;6
77878;PMS7003;67071;51.144;17.050;2023-02-15T23:57:28;15;13;9
